createdAt,value
2023-04-12T00:01:49.191Z,9.51
2023-04-12T00:08:09.163Z,9.52
2023-04-12T00:14:32.230Z,9.6
2023-04-12T00:20:52.168Z,9.72
2023-04-12T00:27:15.210Z,9.76
2023-04-12T00:33:35.200Z,9.75
2023-04-12T00:39:58.185Z,9.72
2023-04-12T00:46:18.214Z,9.68
2023-04-12T00:52:41.223Z,9.61
2023-04-12T00:59:01.153Z,9.5
2023-04-12T01:05:24.193Z,9.39
2023-04-12T01:11:44.216Z,9.3
2023-04-12T01:18:07.163Z,9.23
2023-04-12T01:24:27.217Z,9.2
2023-04-12T01:30:50.214Z,9.17
2023-04-12T01:37:10.182Z,9.13
2023-04-12T01:43:33.152Z,9.1
2023-04-12T01:49:53.340Z,9.04
2023-04-12T01:56:16.165Z,8.99
2023-04-12T02:02:36.275Z,8.91
2023-04-12T02:08:59.187Z,8.8
2023-04-12T02:15:19.191Z,8.71
2023-04-12T02:21:42.185Z,8.64
2023-04-12T02:28:02.215Z,8.6
2023-04-12T02:34:25.168Z,8.51
2023-04-12T02:40:45.192Z,8.43
2023-04-12T02:47:08.220Z,8.39
2023-04-12T02:53:28.187Z,8.37
2023-04-12T02:59:51.170Z,8.34
2023-04-12T03:06:11.234Z,8.31
2023-04-12T03:12:34.210Z,8.28
2023-04-12T03:18:54.200Z,8.2
2023-04-12T03:41:25.191Z,8.14
2023-04-12T03:47:48.258Z,8.11
2023-04-12T03:54:08.250Z,8.11
2023-04-12T04:00:31.202Z,8.11
2023-04-12T04:06:51.187Z,8.12
2023-04-12T04:13:14.153Z,8.12
2023-04-12T04:19:34.218Z,8.14
2023-04-12T04:25:57.182Z,8.14
2023-04-12T04:32:17.196Z,8.16
2023-04-12T04:38:40.263Z,8.16
2023-04-12T04:45:00.206Z,8.18
2023-04-12T04:51:23.213Z,8.19
2023-04-12T04:57:43.254Z,8.21
2023-04-12T05:04:06.295Z,8.21
2023-04-12T05:10:26.301Z,8.2
2023-04-12T05:16:49.232Z,8.2
2023-04-12T05:23:09.174Z,8.22
2023-04-12T05:29:32.182Z,8.23
2023-04-12T05:35:52.247Z,8.22
2023-04-12T05:42:15.222Z,8.2
2023-04-12T05:48:35.160Z,8.17
2023-04-12T05:54:58.195Z,8.16
2023-04-12T06:01:18.263Z,8.15
2023-04-12T06:07:41.215Z,8.18
2023-04-12T06:14:01.261Z,8.19
2023-04-12T06:20:24.208Z,8.24
2023-04-12T06:26:44.285Z,8.27
2023-04-12T06:33:07.414Z,8.3
2023-04-12T06:39:27.179Z,8.32
2023-04-12T06:45:50.280Z,8.37
2023-04-12T06:52:10.160Z,8.44
2023-04-12T06:58:33.212Z,8.49
2023-04-12T07:04:53.217Z,8.55
2023-04-12T07:11:21.255Z,8.59
2023-04-12T07:17:37.211Z,8.64
2023-04-12T07:24:00.197Z,8.76
2023-04-12T07:30:20.338Z,8.87
2023-04-12T07:36:43.189Z,8.99
2023-04-12T07:43:03.183Z,9.03
2023-04-12T07:49:26.266Z,9.06
2023-04-12T07:55:46.210Z,9.13
2023-04-12T08:02:09.280Z,9.25
2023-04-12T08:08:29.266Z,9.33
2023-04-12T08:14:52.181Z,9.44
2023-04-12T08:21:12.220Z,9.52
2023-04-12T08:27:35.263Z,9.6
2023-04-12T08:33:55.452Z,9.69
2023-04-12T08:40:18.166Z,9.79
2023-04-12T08:56:08.092Z,10.17
2023-04-12T09:02:28.219Z,10.26
2023-04-12T09:08:51.188Z,10.28
2023-04-12T09:15:11.288Z,10.56
2023-04-12T09:21:34.175Z,10.88
2023-04-12T09:27:54.226Z,11.03
2023-04-12T09:34:17.201Z,11.15
2023-04-12T09:40:37.200Z,11.24
2023-04-12T09:47:00.280Z,11.28
2023-04-12T09:53:20.219Z,11.28
2023-04-12T09:59:43.202Z,11.29
2023-04-12T10:06:03.160Z,11.34
2023-04-12T10:12:26.187Z,11.43
2023-04-12T10:18:46.183Z,11.55
2023-04-12T10:25:09.189Z,11.78
2023-04-12T10:31:29.230Z,11.89
2023-04-12T10:37:52.179Z,12.05
2023-04-12T10:44:12.208Z,12.23
2023-04-12T10:50:35.270Z,12.52
2023-04-12T10:56:55.375Z,12.88
2023-04-12T11:03:18.414Z,13.65
2023-04-12T11:09:38.203Z,14.21
2023-04-12T11:16:01.240Z,14.16
2023-04-12T11:22:21.214Z,13.53
2023-04-12T11:28:44.346Z,12.21
2023-04-12T11:35:04.350Z,11.55
2023-04-12T11:41:27.413Z,11.45
2023-04-12T11:47:47.284Z,11.47
2023-04-12T11:54:10.176Z,11.54
2023-04-12T12:00:30.169Z,11.63
2023-04-12T12:06:53.370Z,11.63
2023-04-12T12:13:13.181Z,11.54
2023-04-12T12:19:36.188Z,11.58
2023-04-12T12:26:03.024Z,11.65
2023-04-12T12:32:19.501Z,11.85
2023-04-12T12:38:39.209Z,12.1
2023-04-12T12:45:02.196Z,12.36
2023-04-12T12:51:22.197Z,12.72
2023-04-12T12:57:49.819Z,12.84
2023-04-12T13:04:05.543Z,12.84
2023-04-12T13:10:28.154Z,12.89
2023-04-12T13:16:48.220Z,12.95
2023-04-12T13:23:11.196Z,13.09
2023-04-12T13:29:32.454Z,13.18
2023-04-12T13:35:55.211Z,13.34
2023-04-12T13:42:15.180Z,14.11
2023-04-12T13:48:38.314Z,14.39
2023-04-12T13:54:58.262Z,14.76
2023-04-12T14:01:21.293Z,15.34
2023-04-12T14:25:21.156Z,15.08
2023-04-12T14:31:41.203Z,14.96
2023-04-12T14:38:04.182Z,14.76
2023-04-12T14:44:26.124Z,14.98
2023-04-12T14:50:47.165Z,14.91
2023-04-12T14:57:07.167Z,14.5
2023-04-12T15:03:30.379Z,14.49
2023-04-12T15:09:50.197Z,14.31
2023-04-12T15:16:13.207Z,13.85
2023-04-12T15:22:33.216Z,13.61
2023-04-12T15:28:56.220Z,13.38
2023-04-12T15:35:25.726Z,12.44
2023-04-12T15:41:39.279Z,11.85
2023-04-12T15:47:59.227Z,10.71
2023-04-12T15:54:22.244Z,9.91
2023-04-12T16:00:42.495Z,9.68
2023-04-12T16:07:05.222Z,9.62
2023-04-12T16:13:25.210Z,9.74
2023-04-12T16:19:48.236Z,9.9
2023-04-12T16:26:08.164Z,10.05
2023-04-12T16:32:31.214Z,10.12
2023-04-12T16:38:52.327Z,10.1
2023-04-12T16:45:15.338Z,10.72
2023-04-12T16:51:37.191Z,10.31
2023-04-12T16:57:58.247Z,9.78
2023-04-12T17:04:18.331Z,9.39
2023-04-12T17:10:41.237Z,9.79
2023-04-12T17:17:01.400Z,10.2
2023-04-12T17:23:24.205Z,10.09
2023-04-12T17:29:44.230Z,9.88
2023-04-12T17:42:27.213Z,10.26
2023-04-12T17:48:50.507Z,10.25
2023-04-12T17:55:10.243Z,10.21
2023-04-12T18:01:34.766Z,10.13
2023-04-12T18:07:53.191Z,9.99
2023-04-12T18:14:16.226Z,9.78
2023-04-12T18:20:36.165Z,9.54
2023-04-12T18:26:59.301Z,9.25
2023-04-12T18:33:19.468Z,9.02
2023-04-12T18:39:42.183Z,8.85
2023-04-12T18:46:02.186Z,8.68
2023-04-12T18:52:25.202Z,8.52
2023-04-12T18:58:54.324Z,8.34
2023-04-12T19:05:08.161Z,8.24
2023-04-12T19:11:28.210Z,8.05
2023-04-12T19:28:32.162Z,7.88
2023-04-12T19:34:52.145Z,7.66
2023-04-12T19:41:15.149Z,7.51
2023-04-12T19:47:35.416Z,7.44
2023-04-12T19:53:58.621Z,7.4
2023-04-12T20:00:18.192Z,7.32
2023-04-12T20:06:41.189Z,7.2
2023-04-12T20:13:01.288Z,7.1
2023-04-12T20:19:24.221Z,7.01
2023-04-12T20:25:44.221Z,6.87
2023-04-12T20:32:07.181Z,6.76
2023-04-12T20:38:27.185Z,6.7
2023-04-12T20:44:50.232Z,6.63
2023-04-12T20:51:10.201Z,6.6
2023-04-12T20:57:33.277Z,6.59
2023-04-12T21:03:53.218Z,6.58
2023-04-12T21:10:16.376Z,6.72
2023-04-12T21:16:36.276Z,7.05
2023-04-12T21:22:59.205Z,7.29
2023-04-12T21:29:19.230Z,7.51
2023-04-12T21:35:42.190Z,7.72
2023-04-12T21:42:02.280Z,7.76
2023-04-12T21:48:25.307Z,7.71
2023-04-12T21:54:45.204Z,7.67
2023-04-12T22:20:20.167Z,7.39
2023-04-12T22:26:40.202Z,7.24
2023-04-12T22:33:03.213Z,7.04
2023-04-12T22:39:23.203Z,6.84
2023-04-12T22:45:46.199Z,6.69
2023-04-12T22:52:06.206Z,6.47
2023-04-12T22:58:29.222Z,6.31
2023-04-12T23:04:49.417Z,6.23
2023-04-12T23:11:12.169Z,6.19
2023-04-12T23:17:32.306Z,6.2
2023-04-12T23:23:55.184Z,6.27
2023-04-12T23:30:15.233Z,6.35
2023-04-12T23:36:38.241Z,6.45
2023-04-12T23:42:58.259Z,6.52
2023-04-12T23:49:21.186Z,6.56
2023-04-12T23:55:41.247Z,6.7
